Time;durP1;ratioP1;P1;durP2;ratioP2;P2;SDS_P1;SDS_P2;PMS_P1;PMS_P2;Temp;Humidity;BMP_temperature;BMP_pressure;BME280_temperature;BME280_humidity;BME280_pressure;Samples;Min_cycle;Max_cycle;Signal;HPM_P1;HPM_P2
2022/01/06 00:01:07;;;;;;;12.70;5.20;;;5.80;99.90;;;;;;5027105;28;20174;-70
2022/01/06 00:03:34;;;;;;;11.97;4.00;;;5.80;99.90;;;;;;5028309;28;20242;-70
2022/01/06 00:06:04;;;;;;;9.10;3.83;;;5.70;99.90;;;;;;5035376;28;20201;-71
2022/01/06 00:08:30;;;;;;;9.03;3.50;;;5.70;99.90;;;;;;5035453;28;20635;-70
2022/01/06 00:10:55;;;;;;;9.90;4.60;;;5.90;99.90;;;;;;5027114;28;20420;-70
2022/01/06 00:13:30;;;;;;;9.67;3.40;;;5.70;99.90;;;;;;5026061;28;20204;-70
2022/01/06 00:16:05;;;;;;;11.80;3.43;;;5.70;99.90;;;;;;5021495;28;20189;-70
2022/01/06 00:23:02;;;;;;;11.33;3.53;;;5.70;99.90;;;;;;5028399;28;20443;-70
2022/01/06 00:24:00;;;;;;;14.17;4.10;;;5.60;99.90;;;;;;5008262;28;20460;-70
2022/01/06 00:26:26;;;;;;;9.03;3.80;;;5.60;99.90;;;;;;5025314;28;20424;-70
2022/01/06 00:28:51;;;;;;;14.20;3.67;;;5.50;99.90;;;;;;5031876;28;20713;-70
2022/01/06 00:31:17;;;;;;;8.90;3.67;;;5.40;99.90;;;;;;5031868;28;20262;-70
2022/01/06 00:33:42;;;;;;;17.13;3.90;;;5.40;99.90;;;;;;5025760;28;20192;-71
2022/01/06 00:36:08;;;;;;;8.70;3.97;;;5.60;99.90;;;;;;5030545;28;20281;-70
2022/01/06 00:38:33;;;;;;;6.60;3.37;;;5.20;99.90;;;;;;5033040;28;20262;-70
2022/01/06 00:40:59;;;;;;;5.50;3.70;;;5.20;99.90;;;;;;5030502;28;20180;-70
2022/01/06 00:43:24;;;;;;;7.93;3.03;;;5.20;99.90;;;;;;5032138;28;20177;-71
2022/01/06 00:45:50;;;;;;;7.73;3.30;;;5.10;99.90;;;;;;5030717;28;20218;-70
2022/01/06 00:48:15;;;;;;;5.20;3.20;;;5.20;99.90;;;;;;5031811;28;20644;-70
2022/01/06 00:50:43;;;;;;;12.70;3.80;;;5.30;99.90;;;;;;5030828;28;20612;-71
2022/01/06 00:53:09;;;;;;;7.00;3.23;;;5.20;99.90;;;;;;5030917;28;20177;-70
2022/01/06 00:55:36;;;;;;;7.90;3.27;;;5.20;99.90;;;;;;5031041;28;20455;-71
2022/01/06 00:58:02;;;;;;;6.50;3.13;;;5.20;99.90;;;;;;5020271;28;20430;-70
2022/01/06 01:00:37;;;;;;;12.03;3.03;;;5.20;99.90;;;;;;5031101;28;20447;-70
2022/01/06 01:03:04;;;;;;;9.17;3.27;;;5.20;99.90;;;;;;5031343;28;20538;-70
2022/01/06 01:05:30;;;;;;;10.70;4.70;;;5.10;99.90;;;;;;5038490;28;20486;-70
2022/01/06 01:07:56;;;;;;;13.43;3.43;;;5.20;99.90;;;;;;5030258;28;20424;-70
2022/01/06 01:10:21;;;;;;;13.57;3.63;;;5.60;99.90;;;;;;5030831;28;20651;-70
2022/01/06 01:12:48;;;;;;;7.77;3.10;;;5.20;99.90;;;;;;5030758;28;20178;-70
2022/01/06 01:15:19;;;;;;;10.17;3.13;;;5.30;99.90;;;;;;5030318;28;20211;-70
2022/01/06 01:17:48;;;;;;;9.97;3.93;;;5.20;99.90;;;;;;5030950;28;20424;-70
2022/01/06 01:20:14;;;;;;;8.63;3.60;;;5.30;99.90;;;;;;5029512;28;20524;-70
2022/01/06 01:22:39;;;;;;;5.20;3.20;;;5.30;99.90;;;;;;5029384;28;20428;-70
2022/01/06 01:25:06;;;;;;;8.90;3.40;;;5.40;99.90;;;;;;5029157;28;20471;-70
2022/01/06 01:27:36;;;;;;;9.30;3.47;;;5.30;99.90;;;;;;5030270;28;20196;-70
2022/01/06 01:30:08;;;;;;;10.17;3.60;;;5.30;99.90;;;;;;5029415;28;20417;-70
2022/01/06 01:32:36;;;;;;;9.30;3.87;;;5.30;99.90;;;;;;5025652;28;20898;-70
2022/01/06 01:35:08;;;;;;;8.80;3.37;;;5.30;99.90;;;;;;5037679;28;20451;-70
2022/01/06 01:37:34;;;;;;;7.97;3.23;;;5.30;99.90;;;;;;5037531;28;20428;-70
2022/01/06 01:40:00;;;;;;;7.70;3.40;;;5.50;99.90;;;;;;5030790;28;20420;-70
2022/01/06 01:42:27;;;;;;;8.97;3.37;;;5.40;99.90;;;;;;5028763;28;20423;-70
2022/01/06 01:44:53;;;;;;;8.60;3.40;;;5.40;99.90;;;;;;5030100;28;20488;-70
2022/01/06 01:47:54;;;;;;;8.93;3.47;;;5.40;99.90;;;;;;5030437;28;20526;-70
2022/01/06 01:50:16;;;;;;;8.37;3.43;;;5.20;99.90;;;;;;5026860;28;20440;-70
2022/01/06 01:52:53;;;;;;;9.53;3.57;;;5.00;99.90;;;;;;5027655;28;20906;-70
2022/01/06 01:55:32;;;;;;;8.93;3.20;;;4.90;99.90;;;;;;5028871;28;20448;-70
2022/01/06 01:57:57;;;;;;;12.90;4.10;;;4.80;99.90;;;;;;5036385;28;20427;-70
2022/01/06 02:00:26;;;;;;;9.87;3.80;;;4.90;99.90;;;;;;5036366;28;20949;-70
2022/01/06 02:02:52;;;;;;;11.03;3.63;;;5.00;99.90;;;;;;5030072;28;20182;-70
2022/01/06 02:05:36;;;;;;;11.57;4.00;;;5.10;99.90;;;;;;5037367;28;20474;-70
2022/01/06 02:08:02;;;;;;;6.33;3.17;;;5.10;99.90;;;;;;5030213;28;20558;-70
2022/01/06 02:10:29;;;;;;;10.60;3.87;;;5.10;99.90;;;;;;5029518;28;20453;-70
2022/01/06 02:12:56;;;;;;;12.20;3.70;;;5.00;99.90;;;;;;5028742;28;20474;-70
2022/01/06 02:15:22;;;;;;;5.63;3.40;;;5.00;99.90;;;;;;5014398;28;20445;-70
2022/01/06 02:17:49;;;;;;;9.47;4.00;;;5.10;99.90;;;;;;5029386;28;20796;-70
2022/01/06 02:20:17;;;;;;;7.33;3.30;;;5.10;99.90;;;;;;5029683;28;20587;-70
2022/01/06 02:22:44;;;;;;;9.37;3.30;;;5.00;99.90;;;;;;5028521;28;20520;-70
2022/01/06 02:25:14;;;;;;;9.10;3.63;;;5.00;99.90;;;;;;5027476;28;20460;-70
2022/01/06 02:27:41;;;;;;;9.10;3.73;;;5.00;99.90;;;;;;5029561;28;20474;-71
2022/01/06 02:30:08;;;;;;;8.23;3.67;;;4.90;99.90;;;;;;5029409;28;20441;-70
2022/01/06 02:32:34;;;;;;;8.90;3.60;;;4.90;99.90;;;;;;5027815;28;20417;-71
2022/01/06 02:35:04;;;;;;;9.63;4.30;;;5.00;99.90;;;;;;5028733;28;20444;-71
2022/01/06 02:37:29;;;;;;;8.37;3.80;;;4.70;99.90;;;;;;5037530;28;20424;-70
2022/01/06 02:39:55;;;;;;;10.90;3.70;;;5.20;99.90;;;;;;5029370;28;20436;-70
2022/01/06 02:42:20;;;;;;;12.50;4.20;;;5.20;99.90;;;;;;5029096;28;20229;-70
2022/01/06 02:44:46;;;;;;;10.37;4.20;;;5.30;99.90;;;;;;5028770;28;20564;-70
2022/01/06 02:47:11;;;;;;;15.37;4.10;;;5.40;99.90;;;;;;5029442;28;20578;-70
2022/01/06 02:49:37;;;;;;;10.67;4.77;;;5.50;99.90;;;;;;5026730;28;20595;-70
2022/01/06 02:52:03;;;;;;;11.50;4.20;;;5.50;99.90;;;;;;5028512;28;20300;-69
2022/01/06 02:54:28;;;;;;;9.37;3.47;;;5.50;99.90;;;;;;5028858;28;20224;-71
2022/01/06 02:56:54;;;;;;;9.87;4.17;;;5.50;99.90;;;;;;5028876;28;20174;-70
2022/01/06 02:59:20;;;;;;;8.00;3.60;;;5.40;99.90;;;;;;5029631;28;20178;-70
2022/01/06 03:01:46;;;;;;;8.87;4.30;;;5.40;99.90;;;;;;5028443;28;20205;-70
2022/01/06 03:04:12;;;;;;;8.50;4.40;;;5.10;99.90;;;;;;5029388;28;20244;-70
2022/01/06 03:06:39;;;;;;;9.13;3.73;;;5.20;99.90;;;;;;5039769;28;20231;-70
2022/01/06 03:09:07;;;;;;;13.37;4.70;;;5.10;99.90;;;;;;5025819;28;20538;-70
2022/01/06 03:11:33;;;;;;;12.13;3.83;;;5.10;99.90;;;;;;5028089;28;20420;-70
2022/01/06 03:14:00;;;;;;;9.23;3.90;;;5.10;99.90;;;;;;5029142;28;20854;-70
2022/01/06 03:16:26;;;;;;;12.27;4.00;;;5.10;99.90;;;;;;5026461;28;20432;-70
2022/01/06 03:18:51;;;;;;;11.07;3.30;;;5.20;99.90;;;;;;5029145;28;20508;-71
2022/01/06 03:21:17;;;;;;;10.60;4.23;;;5.20;99.90;;;;;;5027921;28;20496;-70
2022/01/06 03:23:43;;;;;;;9.73;3.67;;;5.20;99.90;;;;;;5028864;28;20209;-70
2022/01/06 03:26:09;;;;;;;8.10;3.90;;;5.10;99.90;;;;;;5026635;28;20650;-70
2022/01/06 03:28:34;;;;;;;14.23;3.70;;;5.10;99.90;;;;;;5029376;28;20697;-71
2022/01/06 03:31:00;;;;;;;14.33;3.60;;;5.00;99.90;;;;;;5028907;28;20249;-71
2022/01/06 03:33:25;;;;;;;8.97;3.40;;;5.00;99.90;;;;;;5028540;28;20267;-71
2022/01/06 03:35:51;;;;;;;17.67;3.97;;;5.00;99.90;;;;;;5034003;28;20568;-70
2022/01/06 03:38:17;;;;;;;5.10;3.37;;;5.00;99.90;;;;;;5032179;28;20276;-70
2022/01/06 03:40:42;;;;;;;12.33;4.10;;;5.00;99.90;;;;;;5027086;28;20204;-70
2022/01/06 03:43:08;;;;;;;7.50;3.80;;;5.00;99.90;;;;;;5028573;28;20181;-70
2022/01/06 03:45:35;;;;;;;8.80;3.47;;;5.10;99.90;;;;;;5027678;28;20715;-70
2022/01/06 03:48:01;;;;;;;11.40;3.60;;;5.10;99.90;;;;;;5028546;28;20683;-70
2022/01/06 03:50:26;;;;;;;10.50;3.93;;;5.20;99.90;;;;;;5027907;28;20875;-71
2022/01/06 03:52:52;;;;;;;7.00;3.27;;;5.20;99.90;;;;;;5026254;28;20503;-70
2022/01/06 03:55:19;;;;;;;11.37;3.90;;;5.10;99.90;;;;;;5027031;28;20213;-71
2022/01/06 03:57:46;;;;;;;12.00;3.70;;;5.10;99.90;;;;;;5027676;28;20182;-70
2022/01/06 04:00:14;;;;;;;10.57;3.63;;;5.20;99.90;;;;;;5027934;28;20440;-70
2022/01/06 04:02:41;;;;;;;9.33;4.13;;;5.20;99.90;;;;;;5026572;28;20508;-71
2022/01/06 04:05:07;;;;;;;5.93;3.27;;;5.20;99.90;;;;;;5026410;28;21012;-70
2022/01/06 04:07:32;;;;;;;6.87;3.37;;;5.20;99.90;;;;;;5029718;28;20439;-71
2022/01/06 04:09:58;;;;;;;8.83;3.53;;;5.10;99.90;;;;;;5028161;28;20421;-71
2022/01/06 04:12:24;;;;;;;8.83;2.97;;;5.00;99.90;;;;;;5028593;28;20177;-70
2022/01/06 04:14:50;;;;;;;12.10;4.40;;;5.00;99.90;;;;;;5027690;28;20440;-71
2022/01/06 04:17:16;;;;;;;8.63;3.53;;;4.90;99.90;;;;;;5025473;28;20177;-71
2022/01/06 04:19:41;;;;;;;11.03;3.57;;;4.80;99.90;;;;;;5027296;28;20182;-71
2022/01/06 04:22:07;;;;;;;7.20;3.27;;;4.80;99.90;;;;;;5027459;28;20626;-70
2022/01/06 04:24:34;;;;;;;10.27;4.00;;;4.80;99.90;;;;;;5027471;28;20734;-70
2022/01/06 04:27:00;;;;;;;6.57;3.77;;;4.90;99.90;;;;;;5027147;28;20269;-71
2022/01/06 04:29:25;;;;;;;7.23;3.50;;;4.90;99.90;;;;;;5027888;28;20503;-70
2022/01/06 04:31:51;;;;;;;9.67;4.00;;;5.00;99.90;;;;;;5027377;28;20174;-71
2022/01/06 04:34:16;;;;;;;16.40;3.17;;;5.00;99.90;;;;;;5027442;28;20212;-70
2022/01/06 04:36:48;;;;;;;11.30;3.83;;;5.10;99.90;;;;;;5035253;28;20182;-70
2022/01/06 04:39:13;;;;;;;9.57;3.70;;;5.10;99.90;;;;;;5027244;28;20174;-71
2022/01/06 04:41:39;;;;;;;7.43;3.30;;;5.10;99.90;;;;;;5026775;28;20424;-70
2022/01/06 04:44:05;;;;;;;12.73;3.80;;;5.20;99.90;;;;;;5028140;28;20605;-70
2022/01/06 04:46:30;;;;;;;13.17;4.10;;;5.20;99.90;;;;;;5027219;28;20178;-71
2022/01/06 04:48:56;;;;;;;10.33;4.00;;;5.20;99.90;;;;;;5027613;28;20178;-70
2022/01/06 04:51:21;;;;;;;11.43;4.03;;;5.20;99.90;;;;;;5027084;28;20189;-70
2022/01/06 04:53:47;;;;;;;11.17;3.63;;;5.10;99.90;;;;;;5026598;28;20256;-70
2022/01/06 04:56:12;;;;;;;12.30;3.60;;;5.00;99.90;;;;;;5027376;28;20210;-70
2022/01/06 04:58:38;;;;;;;7.40;3.83;;;5.00;99.90;;;;;;5027849;28;20179;-71
2022/01/06 05:01:04;;;;;;;13.00;4.23;;;4.80;99.90;;;;;;5027361;28;20177;-71
2022/01/06 05:03:29;;;;;;;16.33;4.20;;;4.60;99.90;;;;;;5027407;28;20174;-71
2022/01/06 05:05:55;;;;;;;10.80;3.80;;;4.70;99.90;;;;;;5030149;28;20299;-71
2022/01/06 05:08:20;;;;;;;8.93;4.27;;;4.60;99.90;;;;;;5029403;28;20177;-71
2022/01/06 05:10:46;;;;;;;7.87;3.83;;;4.50;99.90;;;;;;5027768;28;20178;-70
2022/01/06 05:13:11;;;;;;;13.17;4.37;;;4.50;99.90;;;;;;5030431;28;20177;-70
2022/01/06 05:15:37;;;;;;;14.00;4.87;;;4.40;99.90;;;;;;5029508;28;20198;-70
2022/01/06 05:18:03;;;;;;;8.30;3.87;;;4.30;99.90;;;;;;5030743;28;20221;-71
2022/01/06 05:20:30;;;;;;;10.23;4.10;;;4.20;99.90;;;;;;5031016;28;20190;-71
2022/01/06 05:22:56;;;;;;;8.43;4.17;;;4.20;99.90;;;;;;5030711;28;20861;-71
2022/01/06 05:25:26;;;;;;;11.80;4.27;;;4.10;99.90;;;;;;5030317;28;20984;-71
2022/01/06 05:27:52;;;;;;;8.40;3.90;;;4.10;99.90;;;;;;5028876;28;20508;-70
2022/01/06 05:30:18;;;;;;;6.63;3.73;;;4.20;99.90;;;;;;5030580;28;20499;-70
2022/01/06 05:32:44;;;;;;;9.20;3.83;;;4.20;99.90;;;;;;5031274;28;20823;-70
2022/01/06 05:35:10;;;;;;;16.90;4.60;;;4.30;99.90;;;;;;5038595;28;20208;-70
2022/01/06 05:37:36;;;;;;;12.33;3.57;;;4.30;99.90;;;;;;5038891;28;20315;-71
2022/01/06 05:40:02;;;;;;;12.43;3.50;;;4.40;99.90;;;;;;5030834;28;20522;-71
2022/01/06 05:42:28;;;;;;;6.60;3.80;;;4.40;99.90;;;;;;5030286;28;20185;-71
2022/01/06 05:44:53;;;;;;;7.83;3.47;;;4.40;99.90;;;;;;5030340;28;20533;-70
2022/01/06 05:47:19;;;;;;;8.07;4.00;;;4.30;99.90;;;;;;5030537;28;20177;-70
2022/01/06 05:49:44;;;;;;;8.90;3.93;;;4.20;99.90;;;;;;5029770;28;20199;-70
2022/01/06 05:52:10;;;;;;;7.27;3.40;;;4.10;99.90;;;;;;5030141;28;20178;-71
2022/01/06 05:54:35;;;;;;;12.00;3.87;;;4.10;99.90;;;;;;5024264;28;20524;-70
2022/01/06 05:57:01;;;;;;;12.20;4.07;;;4.00;99.90;;;;;;5027822;28;20181;-71
2022/01/06 05:59:29;;;;;;;11.83;3.60;;;4.00;99.90;;;;;;5030399;28;20671;-70
2022/01/06 06:01:55;;;;;;;8.37;3.90;;;;;;;;;;5030354;28;20217;-71
2022/01/06 06:04:20;;;;;;;8.73;4.57;;;4.00;99.90;;;;;;5031789;28;20550;-70
2022/01/06 06:06:46;;;;;;;11.87;3.93;;;4.10;99.90;;;;;;5035940;28;20423;-71
2022/01/06 06:09:11;;;;;;;12.43;3.80;;;4.60;99.90;;;;;;5029867;28;20180;-70
2022/01/06 06:11:37;;;;;;;15.97;4.40;;;4.10;99.90;;;;;;5029992;28;20174;-71
2022/01/06 06:14:02;;;;;;;9.87;4.23;;;4.20;99.90;;;;;;5029482;28;20209;-70
2022/01/06 06:16:28;;;;;;;10.83;4.00;;;4.20;99.90;;;;;;5029934;28;20614;-71
2022/01/06 06:18:54;;;;;;;6.07;3.83;;;4.20;99.90;;;;;;5030532;28;20540;-70
2022/01/06 06:21:19;;;;;;;7.60;3.97;;;4.10;99.90;;;;;;5028589;28;20182;-71
2022/01/06 06:23:45;;;;;;;9.50;3.60;;;4.10;99.90;;;;;;5030196;28;20268;-70
2022/01/06 06:26:11;;;;;;;8.43;4.00;;;4.10;99.90;;;;;;5028462;28;20207;-71
2022/01/06 06:28:37;;;;;;;9.13;4.80;;;4.10;99.90;;;;;;5030738;28;20176;-70
2022/01/06 06:31:02;;;;;;;11.73;5.00;;;4.10;99.90;;;;;;5030130;28;20405;-70
2022/01/06 06:33:28;;;;;;;13.37;5.17;;;4.10;99.90;;;;;;5026801;28;20265;-70
2022/01/06 06:35:54;;;;;;;10.23;5.40;;;3.90;99.90;;;;;;5035726;28;20205;-70
2022/01/06 06:38:20;;;;;;;8.33;4.50;;;;;;;;;;5030922;28;20229;-70
2022/01/06 06:40:46;;;;;;;14.23;4.87;;;4.00;99.90;;;;;;5029373;28;20452;-70
2022/01/06 06:43:14;;;;;;;8.93;4.23;;;4.00;99.90;;;;;;5028496;28;20440;-71
2022/01/06 06:45:41;;;;;;;7.10;3.97;;;3.90;99.90;;;;;;5029268;28;20245;-70
2022/01/06 06:48:07;;;;;;;11.10;3.90;;;3.90;99.90;;;;;;5029716;28;20429;-71
2022/01/06 06:50:33;;;;;;;11.53;3.70;;;4.00;99.90;;;;;;5027895;28;20436;-70
2022/01/06 06:52:59;;;;;;;12.47;4.67;;;4.00;99.90;;;;;;5028791;28;20440;-70
2022/01/06 06:55:24;;;;;;;8.23;3.90;;;4.10;99.90;;;;;;5028702;28;20448;-71
2022/01/06 06:57:50;;;;;;;9.23;4.03;;;4.10;99.90;;;;;;5028600;28;20188;-70
2022/01/06 07:00:16;;;;;;;11.17;4.60;;;4.20;99.90;;;;;;5029151;28;20182;-70
2022/01/06 07:02:42;;;;;;;11.47;4.07;;;4.20;99.90;;;;;;5029254;28;20539;-70
2022/01/06 07:05:08;;;;;;;8.63;4.00;;;4.10;99.90;;;;;;5031535;28;20493;-69
2022/01/06 16:23:47;;;;;;;21.38;7.22;;;2.00;99.90;;;;;;5064595;28;20507;-71
2022/01/06 16:26:13;;;;;;;34.63;11.63;;;2.00;99.90;;;;;;5052826;28;20209;-71
2022/01/06 16:28:39;;;;;;;24.83;8.50;;;2.10;99.90;;;;;;5046416;28;20178;-70
2022/01/06 16:31:13;;;;;;;24.20;8.30;;;2.10;99.90;;;;;;5047141;28;20547;-70
2022/01/06 16:33:43;;;;;;;21.83;9.40;;;2.20;99.90;;;;;;5056613;28;20249;-70
2022/01/06 16:36:10;;;;;;;25.03;7.33;;;2.40;99.90;;;;;;5069001;28;20984;-70
2022/01/06 16:38:36;;;;;;;15.13;8.27;;;3.00;99.90;;;;;;5064793;28;20506;-70
2022/01/06 16:41:03;;;;;;;20.63;8.80;;;2.50;99.90;;;;;;5062327;28;20501;-71
2022/01/06 16:43:29;;;;;;;26.87;14.10;;;2.60;99.90;;;;;;5045891;28;20844;-71
2022/01/06 16:45:56;;;;;;;34.27;18.27;;;2.70;99.90;;;;;;5044114;28;20999;-70
2022/01/06 16:48:23;;;;;;;23.10;12.47;;;2.80;99.90;;;;;;5046938;28;20439;-71
2022/01/06 16:50:48;;;;;;;13.80;8.47;;;3.10;99.90;;;;;;5044921;28;20411;-70
2022/01/06 16:53:15;;;;;;;16.10;8.00;;;3.00;99.90;;;;;;5046105;28;20412;-70
2022/01/06 16:55:41;;;;;;;16.47;7.63;;;2.80;99.90;;;;;;5052493;28;20329;-70
2022/01/06 16:58:08;;;;;;;14.13;7.10;;;2.80;99.90;;;;;;5065843;28;20768;-71
2022/01/06 17:00:33;;;;;;;13.40;6.57;;;2.80;99.90;;;;;;5066394;28;20905;-70
2022/01/06 17:02:59;;;;;;;15.13;6.77;;;3.30;99.90;;;;;;5066073;28;20446;-71
2022/01/06 17:05:25;;;;;;;13.13;8.20;;;2.80;99.90;;;;;;5073947;28;20200;-71
2022/01/06 17:07:55;;;;;;;22.57;10.07;;;3.10;99.90;;;;;;5070847;28;20173;-71
2022/01/06 17:10:23;;;;;;;20.17;9.37;;;2.80;99.90;;;;;;5065775;28;20180;-70
2022/01/06 17:12:49;;;;;;;20.97;9.30;;;2.90;99.90;;;;;;5063313;28;20423;-71
2022/01/06 17:15:15;;;;;;;23.63;10.27;;;2.90;99.90;;;;;;5065530;28;20437;-70
2022/01/06 17:17:41;;;;;;;18.73;10.00;;;3.00;99.90;;;;;;5062050;28;20170;-71
2022/01/06 17:20:07;;;;;;;22.93;11.40;;;3.20;99.90;;;;;;5045799;28;20534;-70
2022/01/06 17:22:32;;;;;;;24.17;12.60;;;3.10;99.90;;;;;;5045401;28;20479;-71
2022/01/06 17:24:58;;;;;;;28.90;13.60;;;3.20;99.90;;;;;;5045699;28;20786;-71
2022/01/06 17:27:24;;;;;;;19.93;11.50;;;3.20;99.90;;;;;;5045291;28;20165;-70
2022/01/06 17:29:49;;;;;;;19.63;9.87;;;3.20;99.90;;;;;;5061757;28;20261;-70
2022/01/06 17:32:15;;;;;;;21.47;9.77;;;3.10;99.90;;;;;;5065574;28;20643;-70
2022/01/06 17:34:41;;;;;;;18.50;10.27;;;3.50;99.90;;;;;;5059087;28;20204;-70
2022/01/06 17:37:06;;;;;;;27.97;15.77;;;3.10;99.90;;;;;;5056882;28;20290;-70
2022/01/06 17:39:33;;;;;;;32.03;14.27;;;3.00;99.90;;;;;;5050859;28;20173;-70
2022/01/06 17:41:58;;;;;;;24.70;12.77;;;3.10;99.90;;;;;;5051412;28;20283;-70
2022/01/06 17:44:25;;;;;;;28.20;15.50;;;2.90;99.90;;;;;;5050313;28;20450;-71
2022/01/06 17:46:51;;;;;;;32.10;15.70;;;2.80;99.90;;;;;;5051979;28;20646;-71
2022/01/06 17:49:16;;;;;;;33.67;16.10;;;2.80;99.90;;;;;;5033898;28;20451;-70
2022/01/06 17:51:43;;;;;;;28.63;15.60;;;2.70;99.90;;;;;;5031356;28;20599;-71
2022/01/06 17:54:10;;;;;;;27.43;13.03;;;2.60;99.90;;;;;;5031719;28;20180;-71
2022/01/06 17:56:35;;;;;;;25.10;12.00;;;2.90;99.90;;;;;;5050881;28;20416;-70
2022/01/06 17:59:01;;;;;;;21.43;11.90;;;2.90;99.90;;;;;;5051350;28;20431;-70
2022/01/06 18:01:27;;;;;;;28.23;14.20;;;2.70;99.90;;;;;;5051583;28;20177;-70
2022/01/06 18:03:52;;;;;;;21.20;10.10;;;3.00;99.90;;;;;;5051863;28;20177;-70
2022/01/06 18:06:22;;;;;;;18.17;10.70;;;2.40;99.90;;;;;;5060546;28;20805;-70
2022/01/06 18:08:55;;;;;;;26.17;11.47;;;2.40;99.90;;;;;;5034887;28;20180;-70
2022/01/06 18:11:22;;;;;;;18.57;9.67;;;2.40;99.90;;;;;;5030259;28;20448;-70
2022/01/06 18:14:09;;;;;;;14.80;8.00;;;2.40;99.90;;;;;;5053991;28;20442;-71
2022/01/06 18:16:36;;;;;;;14.37;8.77;;;2.40;99.90;;;;;;5051386;28;20423;-70
2022/01/06 18:19:01;;;;;;;23.00;14.80;;;2.30;99.90;;;;;;5051902;28;20507;-70
2022/01/06 18:21:28;;;;;;;26.13;11.70;;;2.30;99.90;;;;;;5050291;28;21241;-70
2022/01/06 18:23:53;;;;;;;34.43;13.80;;;2.20;99.90;;;;;;5030231;28;20182;-70
2022/01/06 18:26:19;;;;;;;29.03;13.87;;;2.20;99.90;;;;;;5030626;28;20767;-70
2022/01/06 18:28:45;;;;;;;28.03;15.93;;;2.20;99.90;;;;;;5030383;28;20170;-70
2022/01/06 18:31:12;;;;;;;23.80;13.07;;;2.10;99.90;;;;;;5029838;28;20182;-70
2022/01/06 18:33:43;;;;;;;20.37;9.97;;;2.10;99.90;;;;;;5043198;28;20194;-70
2022/01/06 18:36:11;;;;;;;20.43;9.03;;;2.30;99.90;;;;;;5048506;28;20443;-70
2022/01/06 18:38:38;;;;;;;20.97;10.93;;;2.00;99.90;;;;;;5038950;28;20623;-70
2022/01/06 18:41:04;;;;;;;22.53;10.93;;;2.00;99.90;;;;;;5030703;28;20795;-70
2022/01/06 18:43:30;;;;;;;24.00;11.33;;;;;;;;;;5030645;28;20535;-71
2022/01/06 18:45:56;;;;;;;52.73;24.83;;;;;;;;;;5031521;28;20428;-70
2022/01/06 18:48:22;;;;;;;45.53;22.47;;;1.90;99.90;;;;;;5051029;28;20412;-70
2022/01/06 18:50:49;;;;;;;53.20;21.97;;;2.30;99.90;;;;;;5050856;28;20415;-70
2022/01/06 18:53:15;;;;;;;28.87;14.53;;;2.20;99.90;;;;;;5050266;28;20177;-70
2022/01/06 18:55:41;;;;;;;23.40;13.63;;;1.80;99.90;;;;;;5049161;28;20577;-71
2022/01/06 18:58:06;;;;;;;18.30;11.47;;;1.70;99.90;;;;;;5050083;28;20430;-70
2022/01/06 19:00:33;;;;;;;24.53;11.10;;;;;;;;;;5044872;28;20519;-71
2022/01/06 19:02:58;;;;;;;22.40;11.33;;;;;;;;;;5030682;28;20209;-70
2022/01/06 19:05:25;;;;;;;23.30;11.27;;;1.60;99.90;;;;;;5049709;28;20791;-70
2022/01/06 19:07:54;;;;;;;19.13;11.47;;;2.00;99.90;;;;;;5052923;28;20428;-71
2022/01/06 19:10:22;;;;;;;38.87;12.70;;;1.60;99.90;;;;;;5049743;28;20932;-70
2022/01/06 19:12:49;;;;;;;21.77;12.67;;;1.60;99.90;;;;;;5049764;28;20900;-71
2022/01/06 19:15:15;;;;;;;25.07;12.13;;;1.60;99.90;;;;;;5048910;28;20450;-71
2022/01/06 19:17:41;;;;;;;24.80;11.23;;;1.90;99.90;;;;;;5049551;28;21017;-70
2022/01/06 19:20:07;;;;;;;23.00;11.20;;;2.00;99.90;;;;;;5050083;28;20416;-71
2022/01/06 19:22:32;;;;;;;19.27;9.97;;;1.60;99.90;;;;;;5047210;28;20242;-70
2022/01/06 19:24:59;;;;;;;28.07;10.47;;;1.60;99.90;;;;;;5031006;28;20897;-70
2022/01/06 19:27:25;;;;;;;23.30;9.57;;;1.50;99.90;;;;;;5032803;28;20184;-70
2022/01/06 19:29:50;;;;;;;17.00;8.13;;;1.40;99.90;;;;;;5034969;28;20447;-71
2022/01/06 19:32:16;;;;;;;16.70;8.20;;;1.50;99.90;;;;;;5037322;28;20181;-70
2022/01/06 19:34:41;;;;;;;22.97;10.30;;;1.50;99.90;;;;;;5047662;28;20205;-71
2022/01/06 19:37:07;;;;;;;21.47;9.70;;;1.50;99.90;;;;;;5045821;28;20192;-70
2022/01/06 19:39:33;;;;;;;13.43;7.53;;;1.50;99.90;;;;;;5049102;28;20208;-71
2022/01/06 19:41:59;;;;;;;13.63;7.40;;;1.50;99.90;;;;;;5042695;28;20311;-71
2022/01/06 19:44:25;;;;;;;13.73;7.87;;;1.40;99.90;;;;;;5050268;28;20439;-71
2022/01/06 19:46:51;;;;;;;18.90;8.27;;;1.40;99.90;;;;;;5042684;28;20798;-71
2022/01/06 19:49:16;;;;;;;16.80;8.13;;;1.80;99.90;;;;;;5032234;28;20427;-71
2022/01/06 19:51:43;;;;;;;12.47;7.17;;;1.20;99.90;;;;;;5044322;28;20236;-71
2022/01/06 19:54:09;;;;;;;17.43;7.43;;;1.30;99.90;;;;;;5044422;28;20540;-70
2022/01/06 19:56:35;;;;;;;14.20;8.50;;;1.30;99.90;;;;;;5045581;28;20926;-71
2022/01/06 19:59:01;;;;;;;20.23;10.27;;;1.30;99.90;;;;;;5048030;28;20526;-71
2022/01/06 20:01:26;;;;;;;23.77;9.33;;;1.60;99.90;;;;;;5033245;28;20543;-71
2022/01/06 20:03:52;;;;;;;24.20;9.87;;;1.40;99.90;;;;;;5030082;28;20276;-71
2022/01/06 20:06:18;;;;;;;22.90;11.83;;;1.20;99.90;;;;;;5053212;28;20291;-71
2022/01/06 20:08:43;;;;;;;19.37;10.23;;;1.20;99.90;;;;;;5049805;28;20256;-71
2022/01/06 20:11:09;;;;;;;30.10;13.40;;;1.40;99.90;;;;;;5046337;28;20189;-71
2022/01/06 20:13:34;;;;;;;31.80;15.40;;;1.20;99.90;;;;;;5034276;28;20165;-70
2022/01/06 20:16:03;;;;;;;26.93;14.30;;;1.20;99.90;;;;;;5048257;28;20193;-70
2022/01/06 20:18:32;;;;;;;20.30;10.40;;;1.20;99.90;;;;;;5038532;28;20256;-71
2022/01/06 20:20:59;;;;;;;15.83;9.70;;;1.20;99.90;;;;;;5029060;28;20922;-71
2022/01/06 20:23:25;;;;;;;21.10;9.97;;;1.30;99.90;;;;;;5029925;28;20471;-72
2022/01/06 20:25:50;;;;;;;20.57;8.87;;;-0.50;99.90;;;;;;5028065;28;20782;-71
2022/01/06 20:28:18;;;;;;;16.50;9.63;;;1.20;99.90;;;;;;5044366;28;20272;-71
2022/01/06 20:30:44;;;;;;;32.33;15.40;;;1.20;99.90;;;;;;5039464;28;20173;-71
2022/01/06 20:33:10;;;;;;;25.40;12.40;;;-0.50;99.90;;;;;;5044476;28;20431;-70
2022/01/06 20:35:35;;;;;;;30.90;14.80;;;1.10;99.90;;;;;;5043307;28;20447;-71
2022/01/06 20:38:02;;;;;;;28.63;14.10;;;1.10;99.90;;;;;;5045674;28;20192;-71
2022/01/06 20:40:30;;;;;;;32.13;15.07;;;1.20;99.90;;;;;;5045659;28;20173;-72
2022/01/06 20:42:57;;;;;;;28.13;10.97;;;1.40;99.90;;;;;;5045062;28;20447;-71
2022/01/06 20:45:23;;;;;;;29.00;13.13;;;1.30;99.90;;;;;;5045458;28;20481;-71
2022/01/06 20:47:55;;;;;;;25.80;12.00;;;1.20;99.90;;;;;;5044157;28;20435;-71
2022/01/06 20:53:08;;;;;;;26.57;12.10;;;1.20;99.90;;;;;;5031865;28;20517;-72
2022/01/06 20:55:36;;;;;;;19.57;11.57;;;1.30;99.90;;;;;;5042482;28;20444;-71
2022/01/06 20:58:05;;;;;;;24.23;12.50;;;1.50;99.90;;;;;;5038910;28;20785;-71
2022/01/06 21:00:31;;;;;;;35.83;15.40;;;1.70;99.90;;;;;;5047340;28;20428;-71
2022/01/06 21:02:56;;;;;;;25.70;11.90;;;1.90;99.90;;;;;;5047973;28;20537;-72
2022/01/06 21:05:23;;;;;;;26.73;11.27;;;1.80;99.90;;;;;;5040972;28;20196;-71
2022/01/06 21:07:49;;;;;;;24.47;11.30;;;1.40;99.90;;;;;;5045813;28;20648;-71
2022/01/06 21:10:15;;;;;;;16.50;10.00;;;1.50;99.90;;;;;;5041406;28;20524;-71
2022/01/06 21:12:41;;;;;;;20.87;10.00;;;1.80;99.90;;;;;;5035695;28;20721;-71
2022/01/06 21:15:07;;;;;;;26.10;11.30;;;1.50;99.90;;;;;;5046275;28;20197;-70
2022/01/06 21:17:33;;;;;;;24.07;11.37;;;1.50;99.90;;;;;;5039443;28;20501;-71
2022/01/06 21:19:58;;;;;;;25.20;11.13;;;1.60;99.90;;;;;;5051861;28;20925;-71
2022/01/06 21:22:24;;;;;;;27.13;11.87;;;1.60;99.90;;;;;;5048982;28;20213;-72
2022/01/06 21:24:50;;;;;;;22.43;11.37;;;1.60;99.90;;;;;;5049220;28;20215;-71
2022/01/06 21:27:16;;;;;;;20.10;10.73;;;1.60;99.90;;;;;;5048276;28;20567;-72
2022/01/06 21:29:41;;;;;;;31.20;14.27;;;1.60;99.90;;;;;;5045682;28;20173;-71
2022/01/06 21:32:08;;;;;;;32.20;13.43;;;1.50;99.90;;;;;;5030953;28;20420;-71
2022/01/06 21:34:33;;;;;;;29.20;11.50;;;1.40;99.90;;;;;;5038362;28;20196;-71
2022/01/06 21:36:59;;;;;;;28.13;12.77;;;1.70;99.90;;;;;;5055137;28;20429;-71
2022/01/06 21:39:25;;;;;;;28.97;11.87;;;2.30;99.90;;;;;;5031442;28;20197;-71
2022/01/06 21:41:50;;;;;;;27.90;12.23;;;1.30;99.90;;;;;;5043456;28;20677;-71
2022/01/06 21:44:16;;;;;;;27.33;12.40;;;1.30;99.90;;;;;;5037230;28;20185;-71
2022/01/06 21:46:42;;;;;;;28.30;12.73;;;1.30;99.90;;;;;;5048228;28;20712;-71
2022/01/06 21:49:08;;;;;;;22.10;12.00;;;1.20;99.90;;;;;;5032439;28;20170;-71
2022/01/06 21:51:36;;;;;;;24.70;11.60;;;1.20;99.90;;;;;;5045312;28;20441;-71
2022/01/06 21:54:04;;;;;;;25.50;12.30;;;1.40;99.90;;;;;;5045583;28;20180;-71
2022/01/06 21:56:29;;;;;;;24.03;12.53;;;1.10;99.90;;;;;;5047358;28;20420;-71
2022/01/06 21:58:55;;;;;;;27.77;12.07;;;1.00;99.90;;;;;;5045851;28;20423;-71
2022/01/06 22:01:20;;;;;;;26.20;11.70;;;1.20;99.90;;;;;;5048308;28;20177;-71
2022/01/06 22:03:46;;;;;;;23.33;10.93;;;1.20;99.90;;;;;;5033840;28;20206;-72
2022/01/06 22:06:12;;;;;;;32.27;11.57;;;1.00;99.90;;;;;;5058686;28;20210;-71